sensor_id;sensor_type;location;lat;lon;timestamp;P1;durP1;ratioP1;P2;durP2;ratioP2
68507;SDS011;55510;49.560;19.090;2023-05-10T12:39:21;2.83;;;1.58;;
68507;SDS011;55510;49.560;19.090;2023-05-10T12:42:22;4.85;;;2.42;;
68507;SDS011;55510;49.560;19.090;2023-05-10T12:45:25;4.22;;;2.00;;
68507;SDS011;55510;49.560;19.090;2023-05-10T12:48:28;3.53;;;1.80;;
68507;SDS011;55510;49.560;19.090;2023-05-10T12:51:28;2.65;;;0.80;;
68507;SDS011;55510;49.560;19.090;2023-05-10T12:54:29;3.20;;;1.38;;
68507;SDS011;55510;49.560;19.090;2023-05-10T12:57:30;6.87;;;3.00;;
68507;SDS011;55510;49.560;19.090;2023-05-10T13:00:31;3.40;;;1.50;;
68507;SDS011;55510;49.560;19.090;2023-05-10T13:03:31;2.07;;;0.93;;
68507;SDS011;55510;49.560;19.090;2023-05-10T13:06:32;1.70;;;0.60;;
68507;SDS011;55510;49.560;19.090;2023-05-10T13:09:33;1.97;;;0.87;;
68507;SDS011;55510;49.560;19.090;2023-05-10T13:12:34;2.45;;;1.20;;
68507;SDS011;55510;49.560;19.090;2023-05-10T13:15:34;2.87;;;1.00;;
68507;SDS011;55510;49.560;19.090;2023-05-10T13:18:35;2.65;;;1.27;;
68507;SDS011;55510;49.560;19.090;2023-05-10T13:21:36;2.23;;;0.63;;
68507;SDS011;55510;49.560;19.090;2023-05-10T13:24:36;3.63;;;1.52;;
68507;SDS011;55510;49.560;19.090;2023-05-10T13:27:37;4.87;;;1.43;;
68507;SDS011;55510;49.560;19.090;2023-05-10T13:30:39;3.10;;;1.77;;
68507;SDS011;55510;49.560;19.090;2023-05-10T13:33:40;5.40;;;1.30;;
68507;SDS011;55510;49.560;19.090;2023-05-10T13:36:41;3.23;;;1.30;;
68507;SDS011;55510;49.560;19.090;2023-05-10T13:39:41;6.45;;;1.50;;
68507;SDS011;55510;49.560;19.090;2023-05-10T13:42:42;4.07;;;1.70;;
68507;SDS011;55510;49.560;19.090;2023-05-10T13:45:42;5.10;;;1.65;;
68507;SDS011;55510;49.560;19.090;2023-05-10T13:48:43;4.93;;;1.43;;
68507;SDS011;55510;49.560;19.090;2023-05-10T13:51:44;3.47;;;1.27;;
68507;SDS011;55510;49.560;19.090;2023-05-10T13:54:45;2.97;;;1.70;;
68507;SDS011;55510;49.560;19.090;2023-05-10T13:57:46;2.55;;;0.88;;
68507;SDS011;55510;49.560;19.090;2023-05-10T14:00:46;2.50;;;0.80;;
68507;SDS011;55510;49.560;19.090;2023-05-10T14:03:48;3.70;;;1.27;;
68507;SDS011;55510;49.560;19.090;2023-05-10T14:06:48;3.42;;;1.23;;
68507;SDS011;55510;49.560;19.090;2023-05-10T14:09:49;7.20;;;1.93;;
68507;SDS011;55510;49.560;19.090;2023-05-10T14:12:50;4.80;;;1.55;;
68507;SDS011;55510;49.560;19.090;2023-05-10T14:15:51;2.93;;;1.20;;
68507;SDS011;55510;49.560;19.090;2023-05-10T14:18:53;3.05;;;1.10;;
68507;SDS011;55510;49.560;19.090;2023-05-10T14:21:53;3.70;;;1.50;;
68507;SDS011;55510;49.560;19.090;2023-05-10T14:24:54;5.13;;;2.20;;
68507;SDS011;55510;49.560;19.090;2023-05-10T14:27:55;3.30;;;1.90;;
68507;SDS011;55510;49.560;19.090;2023-05-10T14:30:56;3.33;;;1.40;;
68507;SDS011;55510;49.560;19.090;2023-05-10T14:33:57;2.70;;;1.15;;
68507;SDS011;55510;49.560;19.090;2023-05-10T14:36:58;2.78;;;1.23;;
68507;SDS011;55510;49.560;19.090;2023-05-10T14:39:59;4.50;;;1.80;;
68507;SDS011;55510;49.560;19.090;2023-05-10T14:43:00;3.30;;;1.35;;
68507;SDS011;55510;49.560;19.090;2023-05-10T14:46:00;3.78;;;1.85;;
68507;SDS011;55510;49.560;19.090;2023-05-10T14:49:01;4.90;;;2.30;;
68507;SDS011;55510;49.560;19.090;2023-05-10T14:52:02;4.47;;;2.22;;
68507;SDS011;55510;49.560;19.090;2023-05-10T14:55:03;3.87;;;1.33;;
68507;SDS011;55510;49.560;19.090;2023-05-10T14:58:04;5.00;;;2.30;;
68507;SDS011;55510;49.560;19.090;2023-05-10T15:01:05;7.63;;;4.22;;
68507;SDS011;55510;49.560;19.090;2023-05-10T15:04:06;4.23;;;2.13;;
68507;SDS011;55510;49.560;19.090;2023-05-10T15:07:07;8.38;;;4.50;;
68507;SDS011;55510;49.560;19.090;2023-05-10T15:10:07;9.80;;;4.67;;
68507;SDS011;55510;49.560;19.090;2023-05-10T15:13:09;10.50;;;4.38;;
68507;SDS011;55510;49.560;19.090;2023-05-10T15:16:09;8.03;;;3.13;;
68507;SDS011;55510;49.560;19.090;2023-05-10T15:19:11;6.32;;;2.72;;
68507;SDS011;55510;49.560;19.090;2023-05-10T15:22:11;8.90;;;3.93;;
68507;SDS011;55510;49.560;19.090;2023-05-10T15:25:12;3.67;;;1.30;;
68507;SDS011;55510;49.560;19.090;2023-05-10T15:28:14;7.53;;;2.40;;
68507;SDS011;55510;49.560;19.090;2023-05-10T15:31:14;9.80;;;5.10;;
68507;SDS011;55510;49.560;19.090;2023-05-10T15:34:15;5.63;;;1.90;;
68507;SDS011;55510;49.560;19.090;2023-05-10T15:37:17;6.53;;;4.38;;
68507;SDS011;55510;49.560;19.090;2023-05-10T15:40:17;3.53;;;1.90;;
68507;SDS011;55510;49.560;19.090;2023-05-10T15:43:18;4.97;;;2.85;;
68507;SDS011;55510;49.560;19.090;2023-05-10T15:46:19;6.37;;;3.87;;
68507;SDS011;55510;49.560;19.090;2023-05-10T15:49:20;4.72;;;2.45;;
68507;SDS011;55510;49.560;19.090;2023-05-10T15:52:20;3.97;;;2.13;;
68507;SDS011;55510;49.560;19.090;2023-05-10T15:55:23;7.05;;;2.75;;
68507;SDS011;55510;49.560;19.090;2023-05-10T15:58:23;10.73;;;5.20;;
68507;SDS011;55510;49.560;19.090;2023-05-10T16:01:24;12.73;;;5.43;;
68507;SDS011;55510;49.560;19.090;2023-05-10T16:04:25;12.80;;;6.43;;
68507;SDS011;55510;49.560;19.090;2023-05-10T16:07:26;11.00;;;5.00;;
68507;SDS011;55510;49.560;19.090;2023-05-10T16:10:27;8.60;;;4.97;;
68507;SDS011;55510;49.560;19.090;2023-05-10T16:13:32;7.55;;;3.70;;
68507;SDS011;55510;49.560;19.090;2023-05-10T16:16:34;9.32;;;4.90;;
68507;SDS011;55510;49.560;19.090;2023-05-10T16:19:35;11.60;;;5.55;;
68507;SDS011;55510;49.560;19.090;2023-05-10T16:22:35;14.90;;;6.57;;
68507;SDS011;55510;49.560;19.090;2023-05-10T16:25:36;15.30;;;7.40;;
68507;SDS011;55510;49.560;19.090;2023-05-10T16:28:37;11.27;;;6.73;;
68507;SDS011;55510;49.560;19.090;2023-05-10T16:31:39;10.20;;;5.82;;
68507;SDS011;55510;49.560;19.090;2023-05-10T16:34:40;14.57;;;6.33;;
68507;SDS011;55510;49.560;19.090;2023-05-10T16:37:41;15.10;;;8.15;;
68507;SDS011;55510;49.560;19.090;2023-05-10T16:40:41;23.40;;;12.37;;
68507;SDS011;55510;49.560;19.090;2023-05-10T16:43:42;19.83;;;10.68;;
68507;SDS011;55510;49.560;19.090;2023-05-10T16:46:42;33.17;;;15.90;;
68507;SDS011;55510;49.560;19.090;2023-05-10T16:49:43;31.27;;;17.17;;
68507;SDS011;55510;49.560;19.090;2023-05-10T16:52:44;29.48;;;17.08;;
68507;SDS011;55510;49.560;19.090;2023-05-10T16:55:45;26.53;;;15.03;;
68507;SDS011;55510;49.560;19.090;2023-05-10T16:58:45;26.13;;;14.52;;
68507;SDS011;55510;49.560;19.090;2023-05-10T17:01:46;32.27;;;17.87;;
68507;SDS011;55510;49.560;19.090;2023-05-10T17:04:47;32.88;;;17.67;;
68507;SDS011;55510;49.560;19.090;2023-05-10T17:07:48;34.03;;;16.87;;
68507;SDS011;55510;49.560;19.090;2023-05-10T17:10:49;31.85;;;16.50;;
68507;SDS011;55510;49.560;19.090;2023-05-10T17:13:50;36.33;;;17.67;;
68507;SDS011;55510;49.560;19.090;2023-05-10T17:16:51;34.37;;;18.00;;
68507;SDS011;55510;49.560;19.090;2023-05-10T17:19:52;29.77;;;15.13;;
68507;SDS011;55510;49.560;19.090;2023-05-10T17:22:52;27.37;;;13.70;;
68507;SDS011;55510;49.560;19.090;2023-05-10T17:25:53;16.80;;;7.80;;
68507;SDS011;55510;49.560;19.090;2023-05-10T17:28:54;15.27;;;7.35;;
68507;SDS011;55510;49.560;19.090;2023-05-10T17:31:55;16.00;;;7.30;;
68507;SDS011;55510;49.560;19.090;2023-05-10T17:34:55;14.03;;;6.20;;
68507;SDS011;55510;49.560;19.090;2023-05-10T17:37:57;16.30;;;7.57;;
68507;SDS011;55510;49.560;19.090;2023-05-10T17:40:57;13.55;;;6.47;;
68507;SDS011;55510;49.560;19.090;2023-05-10T17:43:58;10.67;;;4.97;;
68507;SDS011;55510;49.560;19.090;2023-05-10T17:46:58;16.03;;;6.10;;
68507;SDS011;55510;49.560;19.090;2023-05-10T17:49:59;12.65;;;5.20;;
68507;SDS011;55510;49.560;19.090;2023-05-10T17:53:00;9.77;;;3.83;;
68507;SDS011;55510;49.560;19.090;2023-05-10T17:56:02;13.32;;;5.20;;
68507;SDS011;55510;49.560;19.090;2023-05-10T17:59:03;14.88;;;6.18;;
68507;SDS011;55510;49.560;19.090;2023-05-10T18:02:04;22.03;;;8.40;;
68507;SDS011;55510;49.560;19.090;2023-05-10T18:05:05;17.43;;;7.60;;
68507;SDS011;55510;49.560;19.090;2023-05-10T18:08:07;20.80;;;8.20;;
68507;SDS011;55510;49.560;19.090;2023-05-10T18:11:07;21.27;;;7.88;;
68507;SDS011;55510;49.560;19.090;2023-05-10T18:14:09;25.47;;;9.23;;
68507;SDS011;55510;49.560;19.090;2023-05-10T18:17:09;20.00;;;9.70;;
68507;SDS011;55510;49.560;19.090;2023-05-10T18:20:10;16.33;;;7.73;;
68507;SDS011;55510;49.560;19.090;2023-05-10T18:23:11;36.42;;;13.60;;
68507;SDS011;55510;49.560;19.090;2023-05-10T18:26:12;29.07;;;12.50;;
68507;SDS011;55510;49.560;19.090;2023-05-10T18:29:13;26.37;;;11.33;;
68507;SDS011;55510;49.560;19.090;2023-05-10T18:32:14;25.83;;;11.17;;
68507;SDS011;55510;49.560;19.090;2023-05-10T18:35:14;26.83;;;10.47;;
68507;SDS011;55510;49.560;19.090;2023-05-10T18:38:15;23.47;;;11.03;;
68507;SDS011;55510;49.560;19.090;2023-05-10T18:41:16;46.63;;;18.88;;
68507;SDS011;55510;49.560;19.090;2023-05-10T18:44:16;23.17;;;11.30;;
68507;SDS011;55510;49.560;19.090;2023-05-10T18:47:18;25.45;;;10.82;;
68507;SDS011;55510;49.560;19.090;2023-05-10T18:50:19;26.35;;;10.88;;
68507;SDS011;55510;49.560;19.090;2023-05-10T18:53:19;22.37;;;10.70;;
68507;SDS011;55510;49.560;19.090;2023-05-10T18:56:20;22.47;;;9.63;;
68507;SDS011;55510;49.560;19.090;2023-05-10T18:59:21;19.08;;;8.48;;
68507;SDS011;55510;49.560;19.090;2023-05-10T19:02:22;25.83;;;13.43;;
68507;SDS011;55510;49.560;19.090;2023-05-10T19:05:24;31.90;;;15.05;;
68507;SDS011;55510;49.560;19.090;2023-05-10T19:08:29;22.85;;;11.02;;
68507;SDS011;55510;49.560;19.090;2023-05-10T19:11:29;22.20;;;10.63;;
68507;SDS011;55510;49.560;19.090;2023-05-10T19:14:33;26.40;;;12.63;;
68507;SDS011;55510;49.560;19.090;2023-05-10T19:17:35;32.88;;;14.88;;
68507;SDS011;55510;49.560;19.090;2023-05-10T19:20:36;27.67;;;12.90;;
68507;SDS011;55510;49.560;19.090;2023-05-10T19:23:37;26.63;;;12.20;;
68507;SDS011;55510;49.560;19.090;2023-05-10T19:26:39;27.73;;;11.70;;
68507;SDS011;55510;49.560;19.090;2023-05-10T19:29:39;23.77;;;11.23;;
68507;SDS011;55510;49.560;19.090;2023-05-10T19:32:40;39.08;;;17.30;;
68507;SDS011;55510;49.560;19.090;2023-05-10T19:35:43;32.03;;;15.30;;
68507;SDS011;55510;49.560;19.090;2023-05-10T19:38:44;28.97;;;14.33;;
68507;SDS011;55510;49.560;19.090;2023-05-10T19:41:45;29.80;;;16.10;;
68507;SDS011;55510;49.560;19.090;2023-05-10T19:44:47;35.33;;;17.40;;
68507;SDS011;55510;49.560;19.090;2023-05-10T19:47:48;39.33;;;18.20;;
68507;SDS011;55510;49.560;19.090;2023-05-10T19:50:50;35.40;;;17.75;;
68507;SDS011;55510;49.560;19.090;2023-05-10T19:53:51;33.67;;;15.73;;
68507;SDS011;55510;49.560;19.090;2023-05-10T19:56:52;29.97;;;15.23;;
